createdAt,value
2023-04-02T00:01:40.585Z,101230.63
2023-04-02T00:04:10.127Z,101238.08
2023-04-02T00:06:41.515Z,101236.30
2023-04-02T00:08:57.274Z,101240.56
2023-04-02T00:11:10.754Z,101243.80
2023-04-02T00:13:32.890Z,101247.33
2023-04-02T00:15:48.308Z,101246.61
2023-04-02T00:18:01.021Z,101244.45
2023-04-02T00:20:19.124Z,101246.65
2023-04-02T00:22:35.240Z,101240.27
2023-04-02T00:24:48.045Z,101238.06
2023-04-02T00:27:02.409Z,101240.72
2023-04-02T00:29:19.326Z,101240.64
2023-04-02T00:31:34.326Z,101244.36
2023-04-02T00:33:49.684Z,101243.02
2023-04-02T00:36:03.556Z,101247.89
2023-04-02T00:38:25.755Z,101246.26
2023-04-02T00:40:36.211Z,101250.27
2023-04-02T00:42:49.822Z,101254.08
2023-04-02T00:45:05.397Z,101253.83
2023-04-02T00:47:24.113Z,101249.25
2023-04-02T00:49:42.078Z,101255.75
2023-04-02T00:51:56.657Z,101259.34
2023-04-02T00:54:16.939Z,101265.80
2023-04-02T00:56:34.532Z,101263.48
2023-04-02T00:58:49.105Z,101262.58
2023-04-02T01:01:03.218Z,101259.70
2023-04-02T01:03:40.068Z,101264.09
2023-04-02T01:05:55.191Z,101261.15
2023-04-02T01:08:14.314Z,101260.44
2023-04-02T01:10:53.247Z,101262.50
2023-04-02T01:13:17.169Z,101269.07
2023-04-02T01:15:34.367Z,101266.63
2023-04-02T01:18:06.607Z,101272.48
2023-04-02T01:20:50.400Z,101268.96
2023-04-02T01:23:09.201Z,101269.38
2023-04-02T01:25:27.875Z,101267.52
2023-04-02T01:27:48.003Z,101270.61
2023-04-02T01:30:04.257Z,101268.33
2023-04-02T01:32:21.416Z,101270.67
2023-04-02T01:34:36.647Z,101274.71
2023-04-02T01:37:00.343Z,101273.42
2023-04-02T01:39:24.685Z,101271.81
2023-04-02T01:41:45.260Z,101271.67
2023-04-02T01:44:03.562Z,101268.63
2023-04-02T01:46:30.511Z,101273.42
2023-04-02T01:48:47.597Z,101276.96
2023-04-02T01:51:04.670Z,101276.34
2023-04-02T01:53:19.986Z,101281.89
2023-04-02T01:55:42.192Z,101287.39
2023-04-02T01:57:56.875Z,101296.98
2023-04-02T02:00:17.948Z,101298.70
2023-04-02T02:02:33.380Z,101288.48
2023-04-02T02:04:47.456Z,101280.23
2023-04-02T02:07:03.086Z,101278.34
2023-04-02T02:09:24.956Z,101284.39
2023-04-02T02:11:39.028Z,101283.52
2023-04-02T02:13:58.489Z,101282.34
2023-04-02T02:16:18.891Z,101283.38
2023-04-02T02:18:32.989Z,101279.23
2023-04-02T02:20:46.004Z,101285.52
2023-04-02T02:23:01.327Z,101282.48
2023-04-02T02:25:18.902Z,101284.09
2023-04-02T02:27:53.925Z,101282.91
2023-04-02T02:30:14.953Z,101279.30
2023-04-02T02:32:33.225Z,101278.34
2023-04-02T02:34:52.479Z,101278.50
2023-04-02T02:37:10.364Z,101276.00
2023-04-02T02:39:28.947Z,101276.13
2023-04-02T02:41:46.004Z,101270.20
2023-04-02T02:44:06.249Z,101270.38
2023-04-02T02:46:25.193Z,101273.78
2023-04-02T02:48:44.949Z,101271.21
2023-04-02T02:51:02.475Z,101271.80
2023-04-02T02:53:23.078Z,101273.05
2023-04-02T02:55:40.460Z,101272.09
2023-04-02T02:58:05.612Z,101269.55
2023-04-02T03:00:25.778Z,101270.13
2023-04-02T03:02:42.731Z,101271.12
2023-04-02T03:04:59.637Z,101271.20
2023-04-02T03:07:14.575Z,101272.16
2023-04-02T03:09:37.623Z,101276.52
2023-04-02T03:12:00.512Z,101277.77
2023-04-02T03:14:24.757Z,101284.73
2023-04-02T03:16:46.398Z,101287.20
2023-04-02T03:19:04.589Z,101293.50
2023-04-02T03:21:34.869Z,101291.40
2023-04-02T03:23:52.307Z,101294.34
2023-04-02T03:26:11.516Z,101295.92
2023-04-02T03:28:30.012Z,101298.81
2023-04-02T03:30:52.555Z,101300.08
2023-04-02T03:33:10.190Z,101303.63
2023-04-02T03:35:30.654Z,101303.60
2023-04-02T03:37:49.710Z,101304.48
2023-04-02T03:40:09.819Z,101310.84
2023-04-02T03:42:27.713Z,101317.55
2023-04-02T03:44:50.742Z,101319.94
2023-04-02T03:47:08.894Z,101329.52
2023-04-02T03:49:32.684Z,101336.45
2023-04-02T03:51:53.465Z,101339.20
2023-04-02T03:54:08.064Z,101343.26
2023-04-02T03:56:30.453Z,101341.91
2023-04-02T03:58:49.618Z,101342.25
2023-04-02T04:01:08.979Z,101340.84
2023-04-02T04:03:28.294Z,101342.58
2023-04-02T04:05:48.395Z,101343.69
2023-04-02T04:08:06.784Z,101340.10
2023-04-02T04:10:27.645Z,101341.49
2023-04-02T04:12:44.047Z,101343.52
2023-04-02T04:15:04.446Z,101337.95
2023-04-02T04:17:25.608Z,101335.01
2023-04-02T04:19:48.038Z,101332.55
2023-04-02T04:22:19.160Z,101336.69
2023-04-02T04:24:34.734Z,101334.25
2023-04-02T04:26:55.350Z,101333.16
2023-04-02T04:29:18.205Z,101336.35
2023-04-02T04:31:40.115Z,101335.75
2023-04-02T04:34:04.120Z,101341.79
2023-04-02T04:36:30.074Z,101344.16
2023-04-02T04:38:56.488Z,101345.82
2023-04-02T04:41:16.124Z,101344.98
2023-04-02T04:43:42.805Z,101349.21
2023-04-02T04:46:05.062Z,101348.63
2023-04-02T04:48:24.318Z,101349.96
2023-04-02T04:50:41.385Z,101350.16
2023-04-02T04:52:55.552Z,101348.33
2023-04-02T04:55:23.448Z,101349.81
2023-04-02T04:57:42.214Z,101352.13
2023-04-02T05:00:03.607Z,101353.63
2023-04-02T05:02:21.520Z,101355.32
2023-04-02T05:04:38.136Z,101357.83
2023-04-02T05:06:58.167Z,101358.80
2023-04-02T05:09:18.659Z,101355.52
2023-04-02T05:11:35.682Z,101353.77
2023-04-02T05:13:55.998Z,101353.38
2023-04-02T05:16:19.386Z,101349.50
2023-04-02T05:18:42.567Z,101345.17
2023-04-02T05:21:03.539Z,101340.70
2023-04-02T05:23:24.373Z,101341.65
2023-04-02T05:25:38.429Z,101337.33
2023-04-02T05:27:57.539Z,101332.16
2023-04-02T05:30:37.005Z,101327.23
2023-04-02T05:32:53.940Z,101326.63
2023-04-02T05:35:08.226Z,101329.74
2023-04-02T05:37:23.312Z,101332.63
2023-04-02T05:39:36.413Z,101328.20
2023-04-02T05:41:50.757Z,101329.48
2023-04-02T05:44:20.869Z,101324.15
2023-04-02T05:46:38.666Z,101313.92
2023-04-02T05:48:56.443Z,101305.88
2023-04-02T05:51:12.637Z,101299.95
2023-04-02T05:53:29.336Z,101297.27
2023-04-02T05:55:56.889Z,101295.92
2023-04-02T05:58:34.418Z,101291.34
2023-04-02T06:01:16.637Z,101291.20
2023-04-02T06:03:40.918Z,101291.91
2023-04-02T06:05:55.633Z,101289.08
2023-04-02T06:08:15.717Z,101289.21
2023-04-02T06:10:32.016Z,101288.00
2023-04-02T06:12:50.760Z,101289.17
2023-04-02T06:15:05.398Z,101288.16
2023-04-02T06:17:21.175Z,101287.99
2023-04-02T06:19:39.463Z,101290.95
2023-04-02T06:21:55.419Z,101288.67
2023-04-02T06:24:12.996Z,101298.77
2023-04-02T06:26:31.169Z,101303.02
2023-04-02T06:28:50.640Z,101305.15
2023-04-02T06:31:11.129Z,101306.45
2023-04-02T06:33:25.495Z,101304.79
2023-04-02T06:35:47.680Z,101299.52
2023-04-02T06:38:11.619Z,101296.06
2023-04-02T06:40:40.200Z,101286.46
2023-04-02T06:43:22.212Z,101284.70
2023-04-02T06:45:56.511Z,101285.55
2023-04-02T06:48:22.823Z,101288.27
2023-04-02T06:50:49.262Z,101286.14
2023-04-02T06:53:06.346Z,101280.73
2023-04-02T06:55:43.263Z,101274.11
2023-04-02T06:57:56.133Z,101269.19
2023-04-02T07:00:09.642Z,101266.71
2023-04-02T07:02:36.134Z,101271.05
2023-04-02T07:04:51.459Z,101266.77
2023-04-02T07:07:09.965Z,101263.75
2023-04-02T07:09:26.879Z,101262.46
2023-04-02T07:11:42.743Z,101257.52
2023-04-02T07:13:56.125Z,101260.10
2023-04-02T07:16:15.302Z,101257.34
2023-04-02T07:18:33.042Z,101256.09
2023-04-02T07:20:48.978Z,101260.08
2023-04-02T07:23:02.653Z,101258.52
2023-04-02T07:25:17.140Z,101255.52
2023-04-02T07:27:30.628Z,101250.88
2023-04-02T07:29:45.539Z,101250.14
2023-04-02T07:31:59.304Z,101249.17
2023-04-02T07:34:13.327Z,101247.91
2023-04-02T07:36:27.259Z,101248.17
2023-04-02T07:38:40.523Z,101245.40
2023-04-02T07:40:53.495Z,101234.63
2023-04-02T07:43:06.959Z,101231.02
2023-04-02T07:45:20.053Z,101239.85
2023-04-02T07:47:32.973Z,101241.39
2023-04-02T07:49:45.620Z,101243.98
2023-04-02T07:51:58.254Z,101242.20
2023-04-02T07:54:11.383Z,101238.42
2023-04-02T07:56:25.641Z,101238.86
2023-04-02T07:58:39.653Z,101234.73
2023-04-02T08:00:52.602Z,101234.52
2023-04-02T08:03:05.258Z,101230.45
2023-04-02T08:05:19.055Z,101228.85
2023-04-02T08:07:33.040Z,101224.73
2023-04-02T08:09:45.613Z,101223.32
2023-04-02T08:11:58.367Z,101225.78
2023-04-02T08:14:11.554Z,101227.08
2023-04-02T08:16:24.986Z,101219.05
2023-04-02T08:18:37.655Z,101217.33
2023-04-02T08:20:50.500Z,101214.55
2023-04-02T08:23:04.413Z,101209.84
2023-04-02T08:25:17.921Z,101206.16
2023-04-02T08:27:31.217Z,101201.36
2023-04-02T08:29:43.792Z,101202.40
2023-04-02T08:31:56.315Z,101194.05
2023-04-02T08:34:09.060Z,101193.89
2023-04-02T08:36:28.814Z,101192.95
2023-04-02T08:38:41.706Z,101192.09
2023-04-02T08:40:57.950Z,101189.42
2023-04-02T08:43:29.917Z,101188.92
2023-04-02T08:45:57.370Z,101183.48
2023-04-02T08:48:13.865Z,101187.35
2023-04-02T08:50:34.001Z,101187.90
2023-04-02T08:52:48.165Z,101194.95
2023-04-02T08:55:03.135Z,101190.02
2023-04-02T08:57:26.811Z,101189.55
2023-04-02T08:59:43.446Z,101188.98
2023-04-02T09:02:04.617Z,101181.70
2023-04-02T09:04:24.402Z,101171.85
2023-04-02T09:06:42.222Z,101166.17
2023-04-02T09:08:58.651Z,101167.39
2023-04-02T09:11:15.857Z,101165.92
2023-04-02T09:13:31.232Z,101160.41
2023-04-02T09:15:46.928Z,101155.09
2023-04-02T09:18:10.006Z,101153.76
2023-04-02T09:20:25.060Z,101145.14
2023-04-02T09:22:39.595Z,101141.31
2023-04-02T09:24:58.436Z,101141.53
2023-04-02T09:27:23.230Z,101139.91
2023-04-02T09:29:50.601Z,101138.23
2023-04-02T09:32:11.316Z,101133.25
2023-04-02T09:34:37.700Z,101131.14
2023-04-02T09:36:53.737Z,101129.69
2023-04-02T09:39:10.396Z,101135.48
2023-04-02T09:41:30.679Z,101137.02
2023-04-02T09:43:43.832Z,101136.69
2023-04-02T09:46:09.295Z,101137.89
2023-04-02T09:48:31.425Z,101134.14
2023-04-02T09:50:41.908Z,101137.48
2023-04-02T09:52:55.657Z,101131.74
2023-04-02T09:55:27.387Z,101128.37
2023-04-02T09:57:41.368Z,101127.91
2023-04-02T10:00:26.005Z,101132.73
2023-04-02T10:02:50.427Z,101132.02
2023-04-02T10:05:09.596Z,101129.19
2023-04-02T10:07:37.433Z,101127.56
2023-04-02T10:10:00.344Z,101126.15
2023-04-02T10:12:18.573Z,101125.29
2023-04-02T10:14:37.206Z,101124.85
2023-04-02T10:16:53.979Z,101124.76
2023-04-02T10:19:15.740Z,101125.42
2023-04-02T10:21:32.312Z,101124.57
2023-04-02T10:23:46.173Z,101124.56
2023-04-02T10:26:12.054Z,101121.50
2023-04-02T10:28:39.466Z,101120.29
2023-04-02T10:31:01.821Z,101116.56
2023-04-02T10:33:22.638Z,101118.01
2023-04-02T10:35:47.200Z,101116.54
2023-04-02T10:38:27.633Z,101115.05
2023-04-02T10:40:44.128Z,101114.38
2023-04-02T10:43:23.362Z,101106.23
2023-04-02T10:45:45.864Z,101107.66
2023-04-02T10:48:10.725Z,101109.55
2023-04-02T10:50:38.442Z,101107.10
2023-04-02T10:52:59.441Z,101104.59
2023-04-02T10:55:21.146Z,101105.23
2023-04-02T10:57:40.817Z,101103.42
2023-04-02T10:59:58.184Z,101103.13
2023-04-02T11:02:28.924Z,101101.76
2023-04-02T11:04:47.267Z,101102.70
2023-04-02T11:07:13.845Z,101099.73
2023-04-02T11:09:30.678Z,101096.42
2023-04-02T11:11:48.006Z,101097.23
2023-04-02T11:14:05.141Z,101093.89
2023-04-02T11:16:20.488Z,101089.34
2023-04-02T11:18:37.615Z,101087.82
2023-04-02T11:21:05.206Z,101084.03
2023-04-02T11:23:20.910Z,101078.05
2023-04-02T11:25:33.749Z,101073.20
2023-04-02T11:27:46.901Z,101072.02
2023-04-02T11:30:15.091Z,101072.03
2023-04-02T11:32:43.495Z,101079.56
2023-04-02T11:35:21.872Z,101071.33
2023-04-02T11:37:43.834Z,101069.34
2023-04-02T11:39:59.357Z,101066.70
2023-04-02T11:42:28.374Z,101065.36
2023-04-02T11:44:41.197Z,101065.55
2023-04-02T11:46:54.575Z,101065.26
2023-04-02T11:49:41.149Z,101062.00
2023-04-02T11:52:10.899Z,101063.63
2023-04-02T11:54:33.714Z,101056.67
2023-04-02T11:56:57.834Z,101060.57
2023-04-02T11:59:21.683Z,101056.67
2023-04-02T12:01:53.233Z,101050.71
2023-04-02T12:04:43.763Z,101051.35
2023-04-02T12:07:11.681Z,101050.32
2023-04-02T12:09:28.356Z,101047.23
2023-04-02T12:11:43.601Z,101048.32
2023-04-02T12:14:01.866Z,101046.41
2023-04-02T12:16:16.502Z,101047.80
2023-04-02T12:18:31.422Z,101046.88
2023-04-02T12:20:50.150Z,101042.79
2023-04-02T12:23:03.570Z,101037.56
2023-04-02T12:25:30.586Z,101030.79
2023-04-02T12:27:43.565Z,101026.67
2023-04-02T12:29:58.263Z,101030.98
2023-04-02T12:32:29.747Z,101031.03
2023-04-02T12:34:48.519Z,101032.66
2023-04-02T12:37:05.488Z,101033.75
2023-04-02T12:39:23.944Z,101032.89
2023-04-02T12:41:40.077Z,101033.84
2023-04-02T12:43:59.587Z,101032.64
2023-04-02T12:46:17.801Z,101033.20
2023-04-02T12:48:32.964Z,101038.77
2023-04-02T12:50:46.642Z,101035.41
2023-04-02T12:53:02.113Z,101031.06
2023-04-02T12:55:23.936Z,101032.33
2023-04-02T12:57:51.194Z,101030.83
2023-04-02T13:00:07.503Z,101032.70
2023-04-02T13:02:27.264Z,101031.52
2023-04-02T13:04:53.479Z,101032.73
2023-04-02T13:07:08.172Z,101034.22
2023-04-02T13:09:38.314Z,101029.86
2023-04-02T13:11:51.936Z,101030.66
2023-04-02T13:14:08.124Z,101029.99
2023-04-02T13:16:37.054Z,101029.60
2023-04-02T13:18:51.838Z,101027.02
2023-04-02T13:21:06.348Z,101030.86
2023-04-02T13:23:39.816Z,101025.30
2023-04-02T13:25:54.209Z,101019.57
2023-04-02T13:28:07.643Z,101012.57
2023-04-02T13:30:28.247Z,101017.70
2023-04-02T13:32:41.045Z,101016.60
2023-04-02T13:34:53.700Z,101010.49
2023-04-02T13:37:06.457Z,101009.86
2023-04-02T13:39:19.043Z,101011.29
2023-04-02T13:41:33.367Z,101011.16
2023-04-02T13:43:47.003Z,101013.76
2023-04-02T13:46:01.651Z,101005.73
2023-04-02T13:48:19.904Z,101007.36
2023-04-02T13:50:37.401Z,101009.03
2023-04-02T13:52:51.825Z,101014.54
2023-04-02T13:55:05.794Z,101013.12
2023-04-02T13:57:20.624Z,101017.63
2023-04-02T13:59:33.614Z,101014.55
2023-04-02T14:01:48.372Z,101013.81
2023-04-02T14:04:01.966Z,101017.08
2023-04-02T14:06:25.405Z,101014.80
2023-04-02T14:08:48.443Z,101015.83
2023-04-02T14:11:22.246Z,101013.05
2023-04-02T14:13:51.404Z,101009.09
2023-04-02T14:16:18.930Z,101005.30
2023-04-02T14:18:49.992Z,101009.15
2023-04-02T14:21:13.759Z,101011.89
2023-04-02T14:23:51.870Z,101011.35
2023-04-02T14:26:13.414Z,101014.74
2023-04-02T14:28:39.077Z,101011.80
2023-04-02T14:31:00.832Z,101012.80
2023-04-02T14:33:23.114Z,101007.88
2023-04-02T14:35:41.355Z,101013.50
2023-04-02T14:38:07.254Z,101011.77
2023-04-02T14:40:29.434Z,101014.03
2023-04-02T14:42:48.326Z,101012.35
2023-04-02T14:45:08.349Z,101014.23
2023-04-02T14:47:27.429Z,101008.59
2023-04-02T14:49:44.230Z,101005.77
2023-04-02T14:52:03.263Z,101005.23
2023-04-02T14:54:25.840Z,101006.58
2023-04-02T14:56:44.038Z,101008.30
2023-04-02T14:59:06.411Z,101010.20
2023-04-02T15:01:18.005Z,101010.59
2023-04-02T15:03:34.225Z,101013.36
2023-04-02T15:05:50.089Z,101011.48
2023-04-02T15:08:08.492Z,101015.98
2023-04-02T15:10:29.315Z,101015.78
2023-04-02T15:12:44.037Z,101019.20
2023-04-02T15:15:02.727Z,101015.17
2023-04-02T15:17:17.962Z,101017.42
2023-04-02T15:19:31.305Z,101018.86
2023-04-02T15:22:10.096Z,101018.45
2023-04-02T15:24:30.259Z,101022.66
2023-04-02T15:26:52.314Z,101024.23
2023-04-02T15:29:27.824Z,101025.75
2023-04-02T15:31:45.756Z,101027.52
2023-04-02T15:34:07.374Z,101027.21
2023-04-02T15:36:47.927Z,101025.15
2023-04-02T15:39:08.596Z,101024.58
2023-04-02T15:41:28.450Z,101030.26
2023-04-02T15:43:48.048Z,101030.48
2023-04-02T15:46:13.802Z,101026.36
2023-04-02T15:48:40.557Z,101025.39
2023-04-02T15:51:02.281Z,101017.84
2023-04-02T15:53:26.842Z,101015.42
2023-04-02T15:55:48.360Z,101020.83
2023-04-02T15:58:29.280Z,101019.23
2023-04-02T16:00:51.020Z,101017.33
2023-04-02T16:03:32.123Z,101020.27
2023-04-02T16:05:54.305Z,101010.64
2023-04-02T16:08:33.204Z,101011.30
2023-04-02T16:10:49.042Z,101015.92
2023-04-02T16:13:02.518Z,101014.14
2023-04-02T16:15:26.158Z,101011.41
2023-04-02T16:17:44.672Z,101009.04
2023-04-02T16:20:00.394Z,101011.14
2023-04-02T16:22:20.219Z,101013.09
2023-04-02T16:24:34.569Z,101011.15
2023-04-02T16:26:58.133Z,101014.48
2023-04-02T16:29:47.090Z,101011.91
2023-04-02T16:32:14.257Z,101006.95
2023-04-02T16:34:36.948Z,101005.81
2023-04-02T16:37:01.696Z,101006.63
2023-04-02T16:39:26.793Z,101006.34
2023-04-02T16:42:02.079Z,101005.90
2023-04-02T16:44:27.835Z,101002.80
2023-04-02T16:46:54.517Z,101006.21
2023-04-02T16:49:15.717Z,101006.66
2023-04-02T16:51:41.043Z,101008.04
2023-04-02T16:54:03.534Z,101006.27
2023-04-02T16:56:43.161Z,101005.00
2023-04-02T16:59:05.881Z,101004.39
2023-04-02T17:01:26.107Z,101001.09
2023-04-02T17:04:14.617Z,101004.27
2023-04-02T17:06:40.455Z,101010.64
2023-04-02T17:09:04.548Z,101013.70
2023-04-02T17:11:26.075Z,101013.42
2023-04-02T17:13:44.412Z,101014.40
2023-04-02T17:16:07.152Z,101006.96
2023-04-02T17:18:27.580Z,101008.30
2023-04-02T17:20:41.236Z,101004.84
2023-04-02T17:22:56.216Z,100998.52
2023-04-02T17:25:18.909Z,100992.64
2023-04-02T17:27:36.562Z,100988.90
2023-04-02T17:29:55.927Z,100990.90
2023-04-02T17:32:14.396Z,100985.83
2023-04-02T17:34:27.249Z,100986.58
2023-04-02T17:36:52.244Z,100986.02
2023-04-02T17:39:13.181Z,100985.06
2023-04-02T17:41:33.859Z,100983.71
2023-04-02T17:43:56.587Z,100984.26
2023-04-02T17:46:17.478Z,100987.84
2023-04-02T17:48:36.062Z,100981.21
2023-04-02T17:51:11.232Z,100985.52
2023-04-02T17:53:42.480Z,100984.78
2023-04-02T17:56:05.972Z,100985.27
2023-04-02T17:58:37.773Z,100986.06
2023-04-02T18:00:58.137Z,100985.35
2023-04-02T18:03:41.675Z,100990.29
2023-04-02T18:06:02.775Z,100998.39
2023-04-02T18:08:25.747Z,101006.66
2023-04-02T18:10:46.082Z,101011.11
2023-04-02T18:13:06.797Z,101012.77
2023-04-02T18:15:47.038Z,101010.77
2023-04-02T18:18:10.026Z,101007.13
2023-04-02T18:20:34.854Z,101001.06
2023-04-02T18:22:53.120Z,100993.90
2023-04-02T18:25:31.873Z,100992.95
2023-04-02T18:28:02.397Z,100995.02
2023-04-02T18:30:23.308Z,100992.87
2023-04-02T18:33:03.487Z,100993.14
2023-04-02T18:35:26.602Z,100995.31
2023-04-02T18:37:50.566Z,100995.15
2023-04-02T18:40:25.070Z,100994.06
2023-04-02T18:42:51.816Z,100995.81
2023-04-02T18:45:15.318Z,100995.18
2023-04-02T18:47:33.942Z,101002.77
2023-04-02T18:49:52.973Z,101005.75
2023-04-02T18:52:07.905Z,101006.20
2023-04-02T18:54:26.668Z,101009.42
2023-04-02T18:56:43.552Z,101004.95
2023-04-02T18:59:09.614Z,101007.41
2023-04-02T19:01:31.849Z,101005.64
2023-04-02T19:03:51.479Z,101005.63
2023-04-02T19:06:08.768Z,101006.29
2023-04-02T19:08:28.095Z,101010.45
2023-04-02T19:10:46.349Z,101007.52
2023-04-02T19:13:00.214Z,101000.26
2023-04-02T19:15:22.444Z,101000.73
2023-04-02T19:17:40.448Z,100996.48
2023-04-02T19:20:06.142Z,100999.89
2023-04-02T19:22:41.071Z,100995.16
2023-04-02T19:25:28.256Z,100991.64
2023-04-02T19:27:54.895Z,100983.72
2023-04-02T19:30:26.349Z,100981.98
2023-04-02T19:32:49.087Z,100979.04
2023-04-02T19:35:13.710Z,100979.24
2023-04-02T19:37:35.210Z,100981.79
2023-04-02T19:40:20.410Z,100980.30
2023-04-02T19:42:50.979Z,100976.29
2023-04-02T19:45:05.667Z,100980.73
2023-04-02T19:47:20.969Z,100980.10
2023-04-02T19:49:38.330Z,100982.65
2023-04-02T19:51:52.419Z,100976.28
2023-04-02T19:54:05.546Z,100977.17
2023-04-02T19:56:18.810Z,100971.35
2023-04-02T19:58:33.104Z,100974.05
2023-04-02T20:00:45.827Z,100971.64
2023-04-02T20:02:58.750Z,100974.81
2023-04-02T20:05:14.459Z,100975.07
2023-04-02T20:07:27.321Z,100968.54
2023-04-02T20:09:40.202Z,100974.14
2023-04-02T20:11:53.019Z,100978.52
2023-04-02T20:14:05.961Z,100977.20
2023-04-02T20:16:19.158Z,100979.70
2023-04-02T20:18:32.002Z,100975.96
2023-04-02T20:20:44.872Z,100976.33
2023-04-02T20:22:57.780Z,100970.23
2023-04-02T20:25:11.921Z,100969.91
2023-04-02T20:27:24.871Z,100967.55
2023-04-02T20:29:37.486Z,100968.30
2023-04-02T20:31:50.270Z,100966.17
2023-04-02T20:34:06.224Z,100961.33
2023-04-02T20:36:20.400Z,100959.91
2023-04-02T20:38:33.420Z,100958.95
2023-04-02T20:40:53.923Z,100954.72
2023-04-02T20:43:09.994Z,100952.10
2023-04-02T20:45:23.638Z,100954.38
2023-04-02T20:47:37.534Z,100948.98
2023-04-02T20:49:54.169Z,100950.77
2023-04-02T20:52:08.017Z,100953.04
2023-04-02T20:54:22.156Z,100949.05
2023-04-02T20:56:34.882Z,100946.49
2023-04-02T20:58:48.709Z,100943.39
2023-04-02T21:01:12.853Z,100935.33
2023-04-02T21:03:27.683Z,100934.19
2023-04-02T21:05:45.324Z,100925.52
2023-04-02T21:07:58.418Z,100929.50
2023-04-02T21:10:12.606Z,100929.61
2023-04-02T21:12:26.194Z,100928.39
2023-04-02T21:14:41.202Z,100933.46
2023-04-02T21:16:54.805Z,100925.93
2023-04-02T21:19:09.626Z,100926.48
2023-04-02T21:21:22.726Z,100924.91
2023-04-02T21:23:36.456Z,100928.28
2023-04-02T21:25:57.933Z,100929.25
2023-04-02T21:28:10.861Z,100933.09
2023-04-02T21:30:23.841Z,100932.80
2023-04-02T21:32:38.792Z,100926.73
2023-04-02T21:34:52.334Z,100929.11
2023-04-02T21:37:04.972Z,100924.76
2023-04-02T21:39:23.113Z,100921.69
2023-04-02T21:41:37.268Z,100919.70
2023-04-02T21:43:50.352Z,100915.39
2023-04-02T21:46:06.485Z,100917.27
2023-04-02T21:48:19.366Z,100917.67
2023-04-02T21:50:32.635Z,100913.61
2023-04-02T21:52:46.211Z,100908.02
2023-04-02T21:55:00.375Z,100914.50
2023-04-02T21:57:13.114Z,100917.09
2023-04-02T21:59:26.645Z,100915.19
2023-04-02T22:01:42.081Z,100918.80
2023-04-02T22:03:57.471Z,100913.72
2023-04-02T22:06:13.074Z,100927.16
2023-04-02T22:08:28.706Z,100940.27
2023-04-02T22:10:43.571Z,100948.64
2023-04-02T22:12:56.443Z,100952.55
2023-04-02T22:15:12.146Z,100951.46
2023-04-02T22:17:24.983Z,100956.77
2023-04-02T22:19:37.559Z,100959.39
2023-04-02T22:21:50.153Z,100960.67
2023-04-02T22:24:05.370Z,100956.66
2023-04-02T22:26:20.539Z,100952.06
2023-04-02T22:28:34.039Z,100958.77
2023-04-02T22:30:46.858Z,100955.63
2023-04-02T22:32:59.338Z,100956.89
2023-04-02T22:35:12.954Z,100962.11
2023-04-02T22:37:25.687Z,100964.33
2023-04-02T22:39:40.004Z,100962.95
2023-04-02T22:41:53.054Z,100970.02
2023-04-02T22:44:06.676Z,100964.98
2023-04-02T22:46:21.004Z,100963.61
2023-04-02T22:48:33.834Z,100963.26
2023-04-02T22:50:46.380Z,100959.83
2023-04-02T22:52:59.595Z,100950.88
2023-04-02T22:55:14.118Z,100947.63
2023-04-02T22:57:28.394Z,100939.52
2023-04-02T22:59:43.375Z,100942.30
2023-04-02T23:01:57.592Z,100944.83
2023-04-02T23:04:12.944Z,100951.01
2023-04-02T23:06:26.324Z,100949.29
2023-04-02T23:08:39.808Z,100948.89
2023-04-02T23:10:52.561Z,100944.33
2023-04-02T23:13:06.178Z,100952.44
2023-04-02T23:15:19.724Z,100951.45
2023-04-02T23:17:32.622Z,100951.05
2023-04-02T23:19:46.217Z,100953.77
2023-04-02T23:21:59.662Z,100955.59
2023-04-02T23:24:14.425Z,100957.41
2023-04-02T23:26:30.295Z,100962.13
2023-04-02T23:28:44.860Z,100966.76
2023-04-02T23:30:57.681Z,100963.59
2023-04-02T23:33:10.570Z,100963.46
2023-04-02T23:35:25.569Z,100962.98
2023-04-02T23:37:38.284Z,100961.41
2023-04-02T23:39:51.563Z,100965.13
2023-04-02T23:42:04.958Z,100957.33
2023-04-02T23:44:18.418Z,100957.23
2023-04-02T23:46:32.589Z,100954.91
2023-04-02T23:48:47.450Z,100958.99
2023-04-02T23:51:01.086Z,100958.89
2023-04-02T23:53:14.882Z,100952.61
2023-04-02T23:55:28.738Z,100951.34
2023-04-02T23:57:42.246Z,100945.52
2023-04-02T23:59:55.558Z,100945.81
